sensor_id;sensor_type;location;lat;lon;timestamp;temperature;humidity
23815;DHT22;12088;53.078;8.720;2022-09-09T00:00:41;13.90;99.90
23815;DHT22;12088;53.078;8.720;2022-09-09T00:06:23;14.00;99.90
23815;DHT22;12088;53.078;8.720;2022-09-09T00:09:11;14.00;99.90
23815;DHT22;12088;53.078;8.720;2022-09-09T00:11:46;14.00;99.90
23815;DHT22;12088;53.078;8.720;2022-09-09T00:17:02;14.00;99.90
23815;DHT22;12088;53.078;8.720;2022-09-09T00:20:03;14.00;99.90
23815;DHT22;12088;53.078;8.720;2022-09-09T00:22:36;14.00;99.90
23815;DHT22;12088;53.078;8.720;2022-09-09T00:25:11;13.90;99.90
23815;DHT22;12088;53.078;8.720;2022-09-09T00:27:47;14.00;99.90
23815;DHT22;12088;53.078;8.720;2022-09-09T00:30:24;14.00;99.90
23815;DHT22;12088;53.078;8.720;2022-09-09T00:32:58;14.00;99.90
23815;DHT22;12088;53.078;8.720;2022-09-09T00:35:31;14.00;99.90
23815;DHT22;12088;53.078;8.720;2022-09-09T00:38:01;13.90;99.90
23815;DHT22;12088;53.078;8.720;2022-09-09T00:40:38;13.90;99.90
23815;DHT22;12088;53.078;8.720;2022-09-09T00:43:24;13.90;99.90
23815;DHT22;12088;53.078;8.720;2022-09-09T00:55:07;13.80;99.90
23815;DHT22;12088;53.078;8.720;2022-09-09T00:57:35;13.80;99.90
23815;DHT22;12088;53.078;8.720;2022-09-09T01:05:35;13.80;99.90
23815;DHT22;12088;53.078;8.720;2022-09-09T01:08:08;13.80;99.90
23815;DHT22;12088;53.078;8.720;2022-09-09T01:13:29;13.80;99.90
23815;DHT22;12088;53.078;8.720;2022-09-09T01:15:57;13.80;99.90
23815;DHT22;12088;53.078;8.720;2022-09-09T01:18:27;13.80;99.90
23815;DHT22;12088;53.078;8.720;2022-09-09T01:23:48;13.80;99.90
23815;DHT22;12088;53.078;8.720;2022-09-09T01:26:18;13.80;99.90
23815;DHT22;12088;53.078;8.720;2022-09-09T01:28:47;13.80;99.90
23815;DHT22;12088;53.078;8.720;2022-09-09T01:31:20;13.80;99.90
23815;DHT22;12088;53.078;8.720;2022-09-09T01:33:46;13.70;99.90
23815;DHT22;12088;53.078;8.720;2022-09-09T01:36:21;13.70;99.90
23815;DHT22;12088;53.078;8.720;2022-09-09T01:38:49;13.70;99.90
23815;DHT22;12088;53.078;8.720;2022-09-09T01:41:15;13.70;99.90
23815;DHT22;12088;53.078;8.720;2022-09-09T01:43:40;13.70;99.90
23815;DHT22;12088;53.078;8.720;2022-09-09T01:46:06;13.60;99.90
23815;DHT22;12088;53.078;8.720;2022-09-09T01:48:33;13.50;99.90
23815;DHT22;12088;53.078;8.720;2022-09-09T01:50:58;13.50;99.90
23815;DHT22;12088;53.078;8.720;2022-09-09T01:53:24;13.50;99.90
23815;DHT22;12088;53.078;8.720;2022-09-09T01:59:03;13.60;99.90
23815;DHT22;12088;53.078;8.720;2022-09-09T02:04:41;13.50;99.90
23815;DHT22;12088;53.078;8.720;2022-09-09T02:09:41;13.50;99.90
23815;DHT22;12088;53.078;8.720;2022-09-09T02:12:14;13.40;99.90
23815;DHT22;12088;53.078;8.720;2022-09-09T02:14:49;13.30;99.90
23815;DHT22;12088;53.078;8.720;2022-09-09T02:17:19;13.20;99.90
23815;DHT22;12088;53.078;8.720;2022-09-09T02:19:53;13.30;99.90
23815;DHT22;12088;53.078;8.720;2022-09-09T02:22:22;13.30;99.90
23815;DHT22;12088;53.078;8.720;2022-09-09T02:24:50;13.30;99.90
23815;DHT22;12088;53.078;8.720;2022-09-09T02:27:20;13.30;99.90
23815;DHT22;12088;53.078;8.720;2022-09-09T02:29:49;13.30;99.90
23815;DHT22;12088;53.078;8.720;2022-09-09T02:32:18;13.30;99.90
23815;DHT22;12088;53.078;8.720;2022-09-09T02:34:50;13.30;99.90
23815;DHT22;12088;53.078;8.720;2022-09-09T02:37:20;13.30;99.90
23815;DHT22;12088;53.078;8.720;2022-09-09T02:39:47;13.20;99.90
23815;DHT22;12088;53.078;8.720;2022-09-09T02:42:12;13.30;99.90
23815;DHT22;12088;53.078;8.720;2022-09-09T02:44:40;13.20;99.90
23815;DHT22;12088;53.078;8.720;2022-09-09T02:50:13;13.20;99.90
23815;DHT22;12088;53.078;8.720;2022-09-09T02:53:14;13.10;99.90
23815;DHT22;12088;53.078;8.720;2022-09-09T02:55:52;13.00;99.90
23815;DHT22;12088;53.078;8.720;2022-09-09T02:58:20;13.00;99.90
23815;DHT22;12088;53.078;8.720;2022-09-09T03:00:49;12.90;99.90
23815;DHT22;12088;53.078;8.720;2022-09-09T03:03:15;13.00;99.90
23815;DHT22;12088;53.078;8.720;2022-09-09T03:05:43;13.20;99.90
23815;DHT22;12088;53.078;8.720;2022-09-09T03:08:09;13.20;99.90
23815;DHT22;12088;53.078;8.720;2022-09-09T03:10:35;13.20;99.90
23815;DHT22;12088;53.078;8.720;2022-09-09T03:13:00;13.20;99.90
23815;DHT22;12088;53.078;8.720;2022-09-09T03:15:26;13.20;99.90
23815;DHT22;12088;53.078;8.720;2022-09-09T03:17:55;13.20;99.90
23815;DHT22;12088;53.078;8.720;2022-09-09T03:20:23;13.20;99.90
23815;DHT22;12088;53.078;8.720;2022-09-09T03:22:48;13.20;99.90
23815;DHT22;12088;53.078;8.720;2022-09-09T03:25:14;13.20;99.90
23815;DHT22;12088;53.078;8.720;2022-09-09T03:27:39;13.30;99.90
23815;DHT22;12088;53.078;8.720;2022-09-09T03:30:06;13.20;99.90
23815;DHT22;12088;53.078;8.720;2022-09-09T03:32:32;13.20;99.90
23815;DHT22;12088;53.078;8.720;2022-09-09T03:34:58;13.20;99.90
23815;DHT22;12088;53.078;8.720;2022-09-09T03:37:23;13.20;99.90
23815;DHT22;12088;53.078;8.720;2022-09-09T03:39:49;13.30;99.90
23815;DHT22;12088;53.078;8.720;2022-09-09T03:42:15;13.30;99.90
23815;DHT22;12088;53.078;8.720;2022-09-09T03:44:44;13.40;99.90
23815;DHT22;12088;53.078;8.720;2022-09-09T03:47:13;13.40;99.90
23815;DHT22;12088;53.078;8.720;2022-09-09T03:49:38;13.40;99.90
23815;DHT22;12088;53.078;8.720;2022-09-09T03:52:04;13.50;99.90
23815;DHT22;12088;53.078;8.720;2022-09-09T03:54:29;13.50;99.90
23815;DHT22;12088;53.078;8.720;2022-09-09T03:56:55;13.50;99.90
23815;DHT22;12088;53.078;8.720;2022-09-09T03:59:20;13.50;99.90
23815;DHT22;12088;53.078;8.720;2022-09-09T04:01:46;13.60;99.90
23815;DHT22;12088;53.078;8.720;2022-09-09T04:04:13;13.60;99.90
23815;DHT22;12088;53.078;8.720;2022-09-09T04:06:38;13.60;99.90
23815;DHT22;12088;53.078;8.720;2022-09-09T04:09:04;13.70;99.90
23815;DHT22;12088;53.078;8.720;2022-09-09T04:11:29;13.70;99.90
23815;DHT22;12088;53.078;8.720;2022-09-09T04:13:55;13.70;99.90
23815;DHT22;12088;53.078;8.720;2022-09-09T04:16:20;13.70;99.90
23815;DHT22;12088;53.078;8.720;2022-09-09T04:18:46;13.70;99.90
23815;DHT22;12088;53.078;8.720;2022-09-09T04:21:12;13.70;99.90
23815;DHT22;12088;53.078;8.720;2022-09-09T04:23:38;13.70;99.90
23815;DHT22;12088;53.078;8.720;2022-09-09T04:26:05;13.70;99.90
23815;DHT22;12088;53.078;8.720;2022-09-09T04:28:32;13.70;99.90
23815;DHT22;12088;53.078;8.720;2022-09-09T04:31:07;13.70;99.90
23815;DHT22;12088;53.078;8.720;2022-09-09T04:33:34;13.70;99.90
23815;DHT22;12088;53.078;8.720;2022-09-09T04:36:00;13.70;99.90
23815;DHT22;12088;53.078;8.720;2022-09-09T04:38:26;13.80;99.90
23815;DHT22;12088;53.078;8.720;2022-09-09T04:40:52;13.80;99.90
23815;DHT22;12088;53.078;8.720;2022-09-09T04:43:19;13.80;99.90
23815;DHT22;12088;53.078;8.720;2022-09-09T04:45:48;13.80;99.90
23815;DHT22;12088;53.078;8.720;2022-09-09T04:48:14;13.80;99.90
23815;DHT22;12088;53.078;8.720;2022-09-09T04:50:39;13.80;99.90
23815;DHT22;12088;53.078;8.720;2022-09-09T04:53:06;13.80;99.90
23815;DHT22;12088;53.078;8.720;2022-09-09T04:55:32;13.80;99.90
23815;DHT22;12088;53.078;8.720;2022-09-09T04:58:06;13.70;99.90
23815;DHT22;12088;53.078;8.720;2022-09-09T05:00:32;13.70;99.90
23815;DHT22;12088;53.078;8.720;2022-09-09T05:03:03;13.60;99.90
23815;DHT22;12088;53.078;8.720;2022-09-09T05:05:29;13.60;99.90
23815;DHT22;12088;53.078;8.720;2022-09-09T05:08:01;13.60;99.90
23815;DHT22;12088;53.078;8.720;2022-09-09T05:10:27;13.50;99.90
23815;DHT22;12088;53.078;8.720;2022-09-09T05:12:53;13.50;99.90
23815;DHT22;12088;53.078;8.720;2022-09-09T05:15:19;13.50;99.90
23815;DHT22;12088;53.078;8.720;2022-09-09T05:17:46;13.50;99.90
23815;DHT22;12088;53.078;8.720;2022-09-09T05:20:11;13.50;99.90
23815;DHT22;12088;53.078;8.720;2022-09-09T05:22:37;13.50;99.90
23815;DHT22;12088;53.078;8.720;2022-09-09T05:25:03;13.50;99.90
23815;DHT22;12088;53.078;8.720;2022-09-09T05:27:29;13.50;99.90
23815;DHT22;12088;53.078;8.720;2022-09-09T05:29:56;13.50;99.90
23815;DHT22;12088;53.078;8.720;2022-09-09T05:32:22;13.50;99.90
23815;DHT22;12088;53.078;8.720;2022-09-09T05:34:48;13.50;99.90
23815;DHT22;12088;53.078;8.720;2022-09-09T05:37:13;13.60;99.90
23815;DHT22;12088;53.078;8.720;2022-09-09T05:39:39;13.60;99.90
23815;DHT22;12088;53.078;8.720;2022-09-09T05:42:05;13.70;99.90
23815;DHT22;12088;53.078;8.720;2022-09-09T05:44:31;13.70;99.90
23815;DHT22;12088;53.078;8.720;2022-09-09T05:46:56;13.70;99.90
23815;DHT22;12088;53.078;8.720;2022-09-09T05:49:23;13.80;99.90
23815;DHT22;12088;53.078;8.720;2022-09-09T05:51:48;13.80;99.90
23815;DHT22;12088;53.078;8.720;2022-09-09T05:54:16;13.90;99.90
23815;DHT22;12088;53.078;8.720;2022-09-09T05:56:41;13.90;99.90
23815;DHT22;12088;53.078;8.720;2022-09-09T05:59:07;14.00;99.90
23815;DHT22;12088;53.078;8.720;2022-09-09T06:01:34;14.00;99.90
23815;DHT22;12088;53.078;8.720;2022-09-09T06:04:00;14.20;99.90
23815;DHT22;12088;53.078;8.720;2022-09-09T06:06:31;14.30;99.90
23815;DHT22;12088;53.078;8.720;2022-09-09T06:09:01;14.40;99.90
23815;DHT22;12088;53.078;8.720;2022-09-09T06:11:30;14.50;99.90
23815;DHT22;12088;53.078;8.720;2022-09-09T06:14:01;14.50;99.90
23815;DHT22;12088;53.078;8.720;2022-09-09T06:16:28;14.50;99.90
23815;DHT22;12088;53.078;8.720;2022-09-09T06:18:55;14.60;99.90
23815;DHT22;12088;53.078;8.720;2022-09-09T06:21:23;14.60;99.90
23815;DHT22;12088;53.078;8.720;2022-09-09T06:23:50;14.60;99.90
23815;DHT22;12088;53.078;8.720;2022-09-09T06:28:52;14.60;99.90
23815;DHT22;12088;53.078;8.720;2022-09-09T06:31:22;14.60;99.90
23815;DHT22;12088;53.078;8.720;2022-09-09T06:33:49;14.60;99.90
23815;DHT22;12088;53.078;8.720;2022-09-09T06:36:20;14.60;99.90
23815;DHT22;12088;53.078;8.720;2022-09-09T06:38:46;14.60;99.90
23815;DHT22;12088;53.078;8.720;2022-09-09T06:41:15;14.60;99.90
23815;DHT22;12088;53.078;8.720;2022-09-09T06:43:41;14.50;99.90
23815;DHT22;12088;53.078;8.720;2022-09-09T06:46:10;14.60;99.90
23815;DHT22;12088;53.078;8.720;2022-09-09T06:48:38;14.60;99.90
23815;DHT22;12088;53.078;8.720;2022-09-09T06:51:05;14.70;99.90
23815;DHT22;12088;53.078;8.720;2022-09-09T06:53:33;14.90;99.90
23815;DHT22;12088;53.078;8.720;2022-09-09T06:56:03;14.90;99.90
23815;DHT22;12088;53.078;8.720;2022-09-09T06:58:42;15.00;99.90
23815;DHT22;12088;53.078;8.720;2022-09-09T07:01:10;15.00;99.90
23815;DHT22;12088;53.078;8.720;2022-09-09T07:03:38;15.20;99.90
23815;DHT22;12088;53.078;8.720;2022-09-09T07:06:04;15.20;99.90
23815;DHT22;12088;53.078;8.720;2022-09-09T07:08:30;15.30;99.90
23815;DHT22;12088;53.078;8.720;2022-09-09T07:11:05;15.40;99.90
23815;DHT22;12088;53.078;8.720;2022-09-09T07:13:31;15.40;99.90
23815;DHT22;12088;53.078;8.720;2022-09-09T07:16:09;15.40;99.90
23815;DHT22;12088;53.078;8.720;2022-09-09T07:18:35;15.30;99.90
23815;DHT22;12088;53.078;8.720;2022-09-09T07:21:02;15.40;99.90
23815;DHT22;12088;53.078;8.720;2022-09-09T07:23:29;15.40;99.90
23815;DHT22;12088;53.078;8.720;2022-09-09T07:25:55;15.50;99.90
23815;DHT22;12088;53.078;8.720;2022-09-09T07:28:21;15.50;99.90
23815;DHT22;12088;53.078;8.720;2022-09-09T07:31:14;15.60;99.90
23815;DHT22;12088;53.078;8.720;2022-09-09T07:33:40;15.60;99.90
23815;DHT22;12088;53.078;8.720;2022-09-09T07:36:13;15.60;99.90
23815;DHT22;12088;53.078;8.720;2022-09-09T07:38:43;15.80;99.90
23815;DHT22;12088;53.078;8.720;2022-09-09T07:41:13;15.80;99.90
23815;DHT22;12088;53.078;8.720;2022-09-09T07:43:44;15.90;99.90
23815;DHT22;12088;53.078;8.720;2022-09-09T07:46:10;16.00;99.90
23815;DHT22;12088;53.078;8.720;2022-09-09T07:48:37;16.00;99.90
23815;DHT22;12088;53.078;8.720;2022-09-09T07:53:33;16.20;99.90
23815;DHT22;12088;53.078;8.720;2022-09-09T07:56:08;16.40;99.90
23815;DHT22;12088;53.078;8.720;2022-09-09T07:58:35;16.50;99.90
23815;DHT22;12088;53.078;8.720;2022-09-09T08:01:06;16.60;99.90
23815;DHT22;12088;53.078;8.720;2022-09-09T08:03:32;16.90;99.90
23815;DHT22;12088;53.078;8.720;2022-09-09T08:06:01;17.00;99.90
23815;DHT22;12088;53.078;8.720;2022-09-09T08:08:28;17.30;99.90
23815;DHT22;12088;53.078;8.720;2022-09-09T08:10:53;17.50;99.90
23815;DHT22;12088;53.078;8.720;2022-09-09T08:13:19;17.60;99.90
23815;DHT22;12088;53.078;8.720;2022-09-09T08:15:44;17.70;99.90
23815;DHT22;12088;53.078;8.720;2022-09-09T08:18:10;18.10;99.90
23815;DHT22;12088;53.078;8.720;2022-09-09T08:20:36;18.60;99.90
23815;DHT22;12088;53.078;8.720;2022-09-09T08:23:02;19.00;99.90
23815;DHT22;12088;53.078;8.720;2022-09-09T08:25:28;19.20;99.90
23815;DHT22;12088;53.078;8.720;2022-09-09T08:27:54;19.40;99.90
23815;DHT22;12088;53.078;8.720;2022-09-09T08:30:19;20.10;99.90
23815;DHT22;12088;53.078;8.720;2022-09-09T08:32:45;20.10;99.90
23815;DHT22;12088;53.078;8.720;2022-09-09T08:35:10;20.10;99.90
23815;DHT22;12088;53.078;8.720;2022-09-09T08:37:36;20.00;99.90
23815;DHT22;12088;53.078;8.720;2022-09-09T08:40:02;20.00;99.90
23815;DHT22;12088;53.078;8.720;2022-09-09T08:42:38;19.80;99.90
23815;DHT22;12088;53.078;8.720;2022-09-09T08:45:22;20.30;99.90
23815;DHT22;12088;53.078;8.720;2022-09-09T08:48:00;20.30;99.90
23815;DHT22;12088;53.078;8.720;2022-09-09T08:50:29;20.50;99.90
23815;DHT22;12088;53.078;8.720;2022-09-09T08:53:09;21.30;99.90
23815;DHT22;12088;53.078;8.720;2022-09-09T08:55:54;21.60;99.90
23815;DHT22;12088;53.078;8.720;2022-09-09T08:58:29;21.70;99.90
23815;DHT22;12088;53.078;8.720;2022-09-09T09:01:17;22.00;99.90
23815;DHT22;12088;53.078;8.720;2022-09-09T09:04:21;21.80;99.90
23815;DHT22;12088;53.078;8.720;2022-09-09T09:07:18;22.10;99.90
23815;DHT22;12088;53.078;8.720;2022-09-09T09:10:00;22.10;99.90
23815;DHT22;12088;53.078;8.720;2022-09-09T09:12:31;23.00;99.90
23815;DHT22;12088;53.078;8.720;2022-09-09T09:15:00;23.90;99.90
23815;DHT22;12088;53.078;8.720;2022-09-09T09:17:28;24.70;99.90
23815;DHT22;12088;53.078;8.720;2022-09-09T09:19:57;25.80;99.90
23815;DHT22;12088;53.078;8.720;2022-09-09T09:22:32;25.20;99.90
23815;DHT22;12088;53.078;8.720;2022-09-09T09:25:22;24.50;99.90
23815;DHT22;12088;53.078;8.720;2022-09-09T09:30:44;23.40;99.90
23815;DHT22;12088;53.078;8.720;2022-09-09T09:33:26;24.10;99.90
23815;DHT22;12088;53.078;8.720;2022-09-09T09:35:52;24.80;99.90
23815;DHT22;12088;53.078;8.720;2022-09-09T09:38:25;25.10;99.90
23815;DHT22;12088;53.078;8.720;2022-09-09T09:40:56;25.60;99.90
23815;DHT22;12088;53.078;8.720;2022-09-09T09:43:30;26.20;99.90
23815;DHT22;12088;53.078;8.720;2022-09-09T09:45:56;27.40;99.90
23815;DHT22;12088;53.078;8.720;2022-09-09T09:48:26;27.90;99.90
23815;DHT22;12088;53.078;8.720;2022-09-09T09:51:05;27.50;99.90
23815;DHT22;12088;53.078;8.720;2022-09-09T09:53:34;27.90;99.90
23815;DHT22;12088;53.078;8.720;2022-09-09T09:56:04;26.50;99.90
23815;DHT22;12088;53.078;8.720;2022-09-09T09:58:31;25.00;99.90
23815;DHT22;12088;53.078;8.720;2022-09-09T10:00:59;24.80;99.90
23815;DHT22;12088;53.078;8.720;2022-09-09T10:03:35;25.60;99.90
23815;DHT22;12088;53.078;8.720;2022-09-09T10:06:03;26.20;99.90
23815;DHT22;12088;53.078;8.720;2022-09-09T10:08:28;26.10;99.90
23815;DHT22;12088;53.078;8.720;2022-09-09T10:16:33;28.80;99.90
23815;DHT22;12088;53.078;8.720;2022-09-09T10:19:09;29.30;99.90
23815;DHT22;12088;53.078;8.720;2022-09-09T10:22:27;29.70;99.90
23815;DHT22;12088;53.078;8.720;2022-09-09T10:25:24;29.10;99.90
23815;DHT22;12088;53.078;8.720;2022-09-09T10:33:10;28.40;99.90
23815;DHT22;12088;53.078;8.720;2022-09-09T10:35:52;28.50;99.90
23815;DHT22;12088;53.078;8.720;2022-09-09T10:38:41;27.10;99.90
23815;DHT22;12088;53.078;8.720;2022-09-09T10:41:15;25.80;99.90
23815;DHT22;12088;53.078;8.720;2022-09-09T10:49:07;27.90;99.90
23815;DHT22;12088;53.078;8.720;2022-09-09T10:51:53;28.30;99.90
23815;DHT22;12088;53.078;8.720;2022-09-09T10:54:31;28.70;99.90
23815;DHT22;12088;53.078;8.720;2022-09-09T10:57:13;28.70;99.90
23815;DHT22;12088;53.078;8.720;2022-09-09T10:59:47;28.20;99.90
23815;DHT22;12088;53.078;8.720;2022-09-09T11:02:29;28.30;99.90
23815;DHT22;12088;53.078;8.720;2022-09-09T11:05:08;28.40;99.90
23815;DHT22;12088;53.078;8.720;2022-09-09T11:07:41;27.90;99.90
23815;DHT22;12088;53.078;8.720;2022-09-09T11:10:20;27.40;99.90
23815;DHT22;12088;53.078;8.720;2022-09-09T11:12:50;26.90;99.90
23815;DHT22;12088;53.078;8.720;2022-09-09T11:15:51;26.40;99.90
23815;DHT22;12088;53.078;8.720;2022-09-09T11:18:20;25.90;99.90
23815;DHT22;12088;53.078;8.720;2022-09-09T11:20:48;25.70;99.90
23815;DHT22;12088;53.078;8.720;2022-09-09T11:23:22;25.10;99.90
23815;DHT22;12088;53.078;8.720;2022-09-09T11:25:55;24.70;99.90
23815;DHT22;12088;53.078;8.720;2022-09-09T11:33:53;23.50;99.90
23815;DHT22;12088;53.078;8.720;2022-09-09T11:36:49;23.10;99.90
23815;DHT22;12088;53.078;8.720;2022-09-09T11:41:50;22.70;99.90
23815;DHT22;12088;53.078;8.720;2022-09-09T11:44:27;22.50;99.90
23815;DHT22;12088;53.078;8.720;2022-09-09T11:46:53;22.30;99.90
23815;DHT22;12088;53.078;8.720;2022-09-09T11:49:40;22.00;99.90
23815;DHT22;12088;53.078;8.720;2022-09-09T11:54:48;21.60;99.90
23815;DHT22;12088;53.078;8.720;2022-09-09T11:57:25;21.50;99.90
23815;DHT22;12088;53.078;8.720;2022-09-09T11:59:51;21.20;99.90
23815;DHT22;12088;53.078;8.720;2022-09-09T12:02:30;20.70;99.90
23815;DHT22;12088;53.078;8.720;2022-09-09T12:05:12;20.30;99.90
23815;DHT22;12088;53.078;8.720;2022-09-09T12:07:52;20.00;99.90
23815;DHT22;12088;53.078;8.720;2022-09-09T12:10:39;19.70;99.90
23815;DHT22;12088;53.078;8.720;2022-09-09T12:13:19;19.30;99.90
23815;DHT22;12088;53.078;8.720;2022-09-09T12:15:56;18.60;99.90
23815;DHT22;12088;53.078;8.720;2022-09-09T12:18:33;18.20;99.90
23815;DHT22;12088;53.078;8.720;2022-09-09T12:21:18;18.00;99.90
23815;DHT22;12088;53.078;8.720;2022-09-09T12:23:55;16.90;99.90
23815;DHT22;12088;53.078;8.720;2022-09-09T12:26:28;16.40;99.90
23815;DHT22;12088;53.078;8.720;2022-09-09T12:32:00;16.00;99.90
23815;DHT22;12088;53.078;8.720;2022-09-09T12:37:32;16.20;99.90
23815;DHT22;12088;53.078;8.720;2022-09-09T12:40:02;16.30;99.90
23815;DHT22;12088;53.078;8.720;2022-09-09T12:42:29;16.50;99.90
23815;DHT22;12088;53.078;8.720;2022-09-09T12:44:59;16.50;99.90
23815;DHT22;12088;53.078;8.720;2022-09-09T12:49:54;16.70;99.90
23815;DHT22;12088;53.078;8.720;2022-09-09T12:54:50;17.10;99.90
23815;DHT22;12088;53.078;8.720;2022-09-09T12:57:20;17.20;99.90
23815;DHT22;12088;53.078;8.720;2022-09-09T12:59:47;17.50;99.90
23815;DHT22;12088;53.078;8.720;2022-09-09T13:02:24;17.70;99.90
23815;DHT22;12088;53.078;8.720;2022-09-09T13:04:50;18.20;99.90
23815;DHT22;12088;53.078;8.720;2022-09-09T13:07:18;18.50;99.90
23815;DHT22;12088;53.078;8.720;2022-09-09T13:09:46;18.50;99.90
23815;DHT22;12088;53.078;8.720;2022-09-09T13:12:21;18.60;99.90
23815;DHT22;12088;53.078;8.720;2022-09-09T13:14:50;18.60;99.90
23815;DHT22;12088;53.078;8.720;2022-09-09T13:17:24;18.80;99.90
23815;DHT22;12088;53.078;8.720;2022-09-09T13:19:52;19.00;99.90
23815;DHT22;12088;53.078;8.720;2022-09-09T13:22:36;19.30;99.90
23815;DHT22;12088;53.078;8.720;2022-09-09T13:25:26;19.50;99.90
23815;DHT22;12088;53.078;8.720;2022-09-09T13:27:58;19.70;99.90
23815;DHT22;12088;53.078;8.720;2022-09-09T13:30:27;19.80;99.90
23815;DHT22;12088;53.078;8.720;2022-09-09T13:35:27;19.70;99.90
23815;DHT22;12088;53.078;8.720;2022-09-09T13:37:53;19.60;99.90
23815;DHT22;12088;53.078;8.720;2022-09-09T13:40:20;19.50;99.90
23815;DHT22;12088;53.078;8.720;2022-09-09T13:42:50;19.40;99.90
23815;DHT22;12088;53.078;8.720;2022-09-09T13:45:25;19.40;99.90
23815;DHT22;12088;53.078;8.720;2022-09-09T13:47:55;19.20;99.90
23815;DHT22;12088;53.078;8.720;2022-09-09T13:50:22;19.10;99.90
23815;DHT22;12088;53.078;8.720;2022-09-09T13:52:52;19.10;99.90
23815;DHT22;12088;53.078;8.720;2022-09-09T13:55:20;19.20;99.90
23815;DHT22;12088;53.078;8.720;2022-09-09T13:58:03;19.00;99.90
23815;DHT22;12088;53.078;8.720;2022-09-09T14:00:32;18.80;99.90
23815;DHT22;12088;53.078;8.720;2022-09-09T14:02:58;18.80;99.90
23815;DHT22;12088;53.078;8.720;2022-09-09T14:05:25;18.70;99.90
23815;DHT22;12088;53.078;8.720;2022-09-09T14:07:51;18.60;99.90
23815;DHT22;12088;53.078;8.720;2022-09-09T14:10:17;18.50;99.90
23815;DHT22;12088;53.078;8.720;2022-09-09T14:12:42;18.50;99.90
23815;DHT22;12088;53.078;8.720;2022-09-09T14:15:10;18.50;99.90
23815;DHT22;12088;53.078;8.720;2022-09-09T14:17:35;18.30;99.90
23815;DHT22;12088;53.078;8.720;2022-09-09T14:20:03;18.00;99.90
23815;DHT22;12088;53.078;8.720;2022-09-09T14:22:31;18.00;99.90
23815;DHT22;12088;53.078;8.720;2022-09-09T14:24:56;17.90;99.90
23815;DHT22;12088;53.078;8.720;2022-09-09T14:27:22;17.70;99.90
23815;DHT22;12088;53.078;8.720;2022-09-09T14:29:48;17.60;99.90
23815;DHT22;12088;53.078;8.720;2022-09-09T14:32:13;17.50;99.90
23815;DHT22;12088;53.078;8.720;2022-09-09T14:34:39;17.30;99.90
23815;DHT22;12088;53.078;8.720;2022-09-09T14:37:05;17.20;99.90
23815;DHT22;12088;53.078;8.720;2022-09-09T14:39:31;17.10;99.90
23815;DHT22;12088;53.078;8.720;2022-09-09T14:41:57;17.10;99.90
23815;DHT22;12088;53.078;8.720;2022-09-09T14:44:23;17.00;99.90
23815;DHT22;12088;53.078;8.720;2022-09-09T14:46:49;16.90;99.90
23815;DHT22;12088;53.078;8.720;2022-09-09T14:49:18;16.80;99.90
23815;DHT22;12088;53.078;8.720;2022-09-09T14:51:43;16.80;99.90
23815;DHT22;12088;53.078;8.720;2022-09-09T14:54:09;16.70;99.90
23815;DHT22;12088;53.078;8.720;2022-09-09T14:56:36;16.70;99.90
23815;DHT22;12088;53.078;8.720;2022-09-09T14:59:02;16.60;99.90
23815;DHT22;12088;53.078;8.720;2022-09-09T15:01:29;16.60;99.90
23815;DHT22;12088;53.078;8.720;2022-09-09T15:03:57;16.60;99.90
23815;DHT22;12088;53.078;8.720;2022-09-09T15:06:24;16.60;99.90
23815;DHT22;12088;53.078;8.720;2022-09-09T15:08:52;16.70;99.90
23815;DHT22;12088;53.078;8.720;2022-09-09T15:11:19;16.70;99.90
23815;DHT22;12088;53.078;8.720;2022-09-09T15:13:46;16.70;99.90
23815;DHT22;12088;53.078;8.720;2022-09-09T15:16:20;16.70;99.90
23815;DHT22;12088;53.078;8.720;2022-09-09T15:18:46;16.60;99.90
23815;DHT22;12088;53.078;8.720;2022-09-09T15:21:17;16.50;99.90
23815;DHT22;12088;53.078;8.720;2022-09-09T15:23:44;16.50;99.90
23815;DHT22;12088;53.078;8.720;2022-09-09T15:26:11;16.60;99.90
23815;DHT22;12088;53.078;8.720;2022-09-09T15:28:39;16.60;99.90
23815;DHT22;12088;53.078;8.720;2022-09-09T15:31:09;16.70;99.90
23815;DHT22;12088;53.078;8.720;2022-09-09T15:33:35;16.60;99.90
23815;DHT22;12088;53.078;8.720;2022-09-09T15:36:19;16.60;99.90
23815;DHT22;12088;53.078;8.720;2022-09-09T15:38:46;16.70;99.90
23815;DHT22;12088;53.078;8.720;2022-09-09T15:41:13;16.70;99.90
23815;DHT22;12088;53.078;8.720;2022-09-09T15:43:38;16.70;99.90
23815;DHT22;12088;53.078;8.720;2022-09-09T15:48:43;16.90;99.90
23815;DHT22;12088;53.078;8.720;2022-09-09T15:51:10;16.80;99.90
23815;DHT22;12088;53.078;8.720;2022-09-09T15:53:36;16.70;99.90
23815;DHT22;12088;53.078;8.720;2022-09-09T15:56:05;16.70;99.90
23815;DHT22;12088;53.078;8.720;2022-09-09T15:58:32;16.80;99.90
23815;DHT22;12088;53.078;8.720;2022-09-09T16:01:06;16.70;99.90
23815;DHT22;12088;53.078;8.720;2022-09-09T16:03:37;16.80;99.90
23815;DHT22;12088;53.078;8.720;2022-09-09T16:06:04;16.70;99.90
23815;DHT22;12088;53.078;8.720;2022-09-09T16:08:39;16.70;99.90
23815;DHT22;12088;53.078;8.720;2022-09-09T16:11:11;16.60;99.90
23815;DHT22;12088;53.078;8.720;2022-09-09T16:13:38;16.60;99.90
23815;DHT22;12088;53.078;8.720;2022-09-09T16:16:08;16.60;99.90
23815;DHT22;12088;53.078;8.720;2022-09-09T16:18:42;16.50;99.90
23815;DHT22;12088;53.078;8.720;2022-09-09T16:21:13;16.40;99.90
23815;DHT22;12088;53.078;8.720;2022-09-09T16:23:39;16.60;99.90
23815;DHT22;12088;53.078;8.720;2022-09-09T16:26:05;16.60;99.90
23815;DHT22;12088;53.078;8.720;2022-09-09T16:28:30;16.70;99.90
23815;DHT22;12088;53.078;8.720;2022-09-09T16:30:57;16.60;99.90
23815;DHT22;12088;53.078;8.720;2022-09-09T16:33:24;16.60;99.90
23815;DHT22;12088;53.078;8.720;2022-09-09T16:35:51;16.60;99.90
23815;DHT22;12088;53.078;8.720;2022-09-09T16:38:17;16.50;99.90
23815;DHT22;12088;53.078;8.720;2022-09-09T16:40:42;16.50;99.90
23815;DHT22;12088;53.078;8.720;2022-09-09T16:43:08;16.60;99.90
23815;DHT22;12088;53.078;8.720;2022-09-09T16:45:42;16.60;99.90
23815;DHT22;12088;53.078;8.720;2022-09-09T16:48:08;16.60;99.90
23815;DHT22;12088;53.078;8.720;2022-09-09T16:50:33;16.60;99.90
23815;DHT22;12088;53.078;8.720;2022-09-09T16:52:59;16.50;99.90
23815;DHT22;12088;53.078;8.720;2022-09-09T16:55:28;16.50;99.90
23815;DHT22;12088;53.078;8.720;2022-09-09T16:57:53;16.30;99.90
23815;DHT22;12088;53.078;8.720;2022-09-09T17:00:19;16.20;99.90
23815;DHT22;12088;53.078;8.720;2022-09-09T17:02:44;16.10;99.90
23815;DHT22;12088;53.078;8.720;2022-09-09T17:05:10;16.10;99.90
23815;DHT22;12088;53.078;8.720;2022-09-09T17:07:37;16.10;99.90
23815;DHT22;12088;53.078;8.720;2022-09-09T17:10:04;16.10;99.90
23815;DHT22;12088;53.078;8.720;2022-09-09T17:12:31;16.00;99.90
23815;DHT22;12088;53.078;8.720;2022-09-09T17:14:56;15.90;99.90
23815;DHT22;12088;53.078;8.720;2022-09-09T17:17:24;15.90;99.90